CheckWX is a tool to help pilots better visualize weather data.  It is not intended as a substitute for an official pre-flight weather briefing.

14:30:22 UTC

KOXR METAR
Oxnard Airport
Oxnard, California, USA
Current

39 mins ago

KOXR 221351Z 04003KT 10SM CLR 11/08 A3001 RMK AO2 SLP162 T01060083 $
Observed
Apr-22 @ 13:51 UTC
Wind
  • 040° at 3 KTS
Visibility
10 SM
Flight Rules
VFR
Cloud Levels
  • Clear skies
Temperature
11°C / 52°F
Dewpoint
C / 46°F
Humidity
82%
Altimeter
30.01" Hg
Pressure
1016.22 hPa
Previous

2 hours ago

KOXR 221251Z AUTO 05003KT 10SM CLR 10/08 A2999 RMK AO2 SLP156 T01000078 $
Observed
Apr-22 @ 12:51 UTC
Wind
  • 050° at 3 KTS
Visibility
10 SM
Flight Rules
VFR
Cloud Levels
  • Clear skies
Temperature
10°C / 50°F
Dewpoint
C / 46°F
Humidity
88%
Altimeter
29.99" Hg
Pressure
1015.62 hPa
Previous

3 hours ago

KOXR 221151Z AUTO 05005KT 10SM CLR 10/08 A2999 RMK AO2 SLP154 T01000078 10133 20100 56007 $
Observed
Apr-22 @ 11:51 UTC
Wind
  • 050° at 5 KTS
Visibility
10 SM
Flight Rules
VFR
Cloud Levels
  • Clear skies
Temperature
10°C / 50°F
Dewpoint
C / 46°F
Humidity
88%
Altimeter
29.99" Hg
Pressure
1015.62 hPa